Time;durP1;ratioP1;P1;durP2;ratioP2;P2;SDS_P1;SDS_P2;PMS_P1;PMS_P2;Temp;Humidity;BMP_temperature;BMP_pressure;BME280_temperature;BME280_humidity;BME280_pressure;Samples;Min_cycle;Max_cycle;Signal;HPM_P1;HPM_P2
2022/12/20 00:02:14;;;;;;;2.00;0.87;;;14.40;99.90;;;;;;5009649;28;20190;-74
2022/12/20 00:04:39;;;;;;;2.70;0.90;;;14.40;99.90;;;;;;5009231;28;20269;-74
2022/12/20 00:07:05;;;;;;;2.00;0.80;;;14.40;99.90;;;;;;5010286;28;20209;-74
2022/12/20 00:09:31;;;;;;;2.17;1.10;;;14.40;99.90;;;;;;5013650;28;20642;-74
2022/12/20 00:11:57;;;;;;;1.60;1.00;;;14.40;99.90;;;;;;4975966;28;20737;-74
2022/12/20 00:14:22;;;;;;;2.57;1.10;;;14.40;99.90;;;;;;5009097;28;20585;-74
2022/12/20 00:16:48;;;;;;;1.90;1.23;;;14.40;99.90;;;;;;4992510;28;20184;-74
2022/12/20 00:19:14;;;;;;;1.60;0.90;;;14.40;99.90;;;;;;5009240;28;20182;-74
2022/12/20 00:21:39;;;;;;;3.77;1.30;;;14.40;99.90;;;;;;5008299;28;20241;-73
2022/12/20 00:24:05;;;;;;;1.80;0.77;;;14.40;99.90;;;;;;5008510;28;20185;-74
2022/12/20 00:26:33;;;;;;;1.90;0.80;;;14.40;99.90;;;;;;5010735;28;20573;-75
2022/12/20 00:28:59;;;;;;;6.10;1.43;;;14.40;99.90;;;;;;5010051;28;20585;-76
2022/12/20 00:31:28;;;;;;;2.57;0.90;;;14.50;99.90;;;;;;5009939;28;20622;-76
2022/12/20 00:33:56;;;;;;;2.03;0.90;;;14.40;99.90;;;;;;5009989;28;20585;-76
2022/12/20 00:36:23;;;;;;;1.50;0.90;;;14.40;99.90;;;;;;5011210;28;21079;-75
2022/12/20 00:38:51;;;;;;;2.43;1.10;;;14.30;99.90;;;;;;5009290;28;20573;-75
2022/12/20 00:41:20;;;;;;;5.40;1.20;;;14.20;99.90;;;;;;5009065;28;21200;-75
2022/12/20 00:43:46;;;;;;;1.50;0.83;;;14.10;99.90;;;;;;5010875;28;20641;-75
2022/12/20 00:46:14;;;;;;;3.97;1.20;;;14.10;99.90;;;;;;5011596;28;20629;-75
2022/12/20 00:48:40;;;;;;;2.60;1.07;;;14.00;99.90;;;;;;5010195;28;20573;-75
2022/12/20 00:51:27;;;;;;;3.90;1.20;;;13.90;99.90;;;;;;5007837;28;20609;-75
2022/12/20 00:53:54;;;;;;;4.33;1.23;;;13.80;99.90;;;;;;4991835;28;20624;-75
2022/12/20 00:56:20;;;;;;;2.97;1.30;;;13.80;99.90;;;;;;5008117;28;20600;-75
2022/12/20 00:58:45;;;;;;;1.90;1.33;;;13.70;99.90;;;;;;5008621;28;20589;-75
2022/12/20 01:01:23;;;;;;;2.03;1.10;;;13.60;99.90;;;;;;5007487;28;21442;-75
2022/12/20 01:03:50;;;;;;;4.40;1.83;;;13.60;99.90;;;;;;5008214;28;20276;-75
2022/12/20 01:06:16;;;;;;;1.90;1.40;;;13.60;99.90;;;;;;5009547;28;20628;-74
2022/12/20 01:08:42;;;;;;;1.90;1.30;;;13.50;99.90;;;;;;5008136;28;20585;-74
2022/12/20 01:11:18;;;;;;;3.60;1.70;;;13.50;99.90;;;;;;5005528;28;20691;-75
2022/12/20 01:13:47;;;;;;;2.73;1.20;;;13.50;99.90;;;;;;5001781;28;20680;-75
2022/12/20 01:16:16;;;;;;;4.70;2.23;;;13.40;99.90;;;;;;5009077;28;21212;-75
2022/12/20 01:18:43;;;;;;;2.90;1.20;;;13.40;99.90;;;;;;4991712;28;20625;-75
2022/12/20 01:21:11;;;;;;;3.05;1.30;;;13.40;99.90;;;;;;5007585;28;20643;-75
2022/12/20 01:23:37;;;;;;;2.58;1.15;;;13.40;99.90;;;;;;4994715;28;20264;-76
2022/12/20 01:26:07;;;;;;;3.20;1.65;;;13.40;99.90;;;;;;4975991;28;20202;-75
2022/12/20 01:28:34;;;;;;;3.35;1.48;;;13.30;99.90;;;;;;5009186;28;20750;-75
2022/12/20 01:31:00;;;;;;;5.23;2.30;;;13.40;99.90;;;;;;5008391;28;20197;-75
2022/12/20 01:33:26;;;;;;;1.90;1.20;;;13.40;99.90;;;;;;5008528;28;21101;-75
2022/12/20 01:36:04;;;;;;;2.70;1.50;;;13.40;99.90;;;;;;5008731;28;20621;-75
2022/12/20 01:38:30;;;;;;;2.63;1.60;;;13.30;99.90;;;;;;5009085;28;20577;-75
2022/12/20 01:40:56;;;;;;;3.30;1.52;;;13.30;99.90;;;;;;4991088;28;20605;-75
2022/12/20 01:43:24;;;;;;;2.85;1.58;;;13.40;99.90;;;;;;5007912;28;20253;-75
2022/12/20 01:45:50;;;;;;;5.18;1.77;;;13.40;99.90;;;;;;5010003;28;20166;-75
2022/12/20 01:48:24;;;;;;;3.40;2.20;;;13.40;99.90;;;;;;5009570;28;20658;-75
2022/12/20 01:50:51;;;;;;;2.70;2.07;;;13.40;99.90;;;;;;5009337;28;20623;-75
2022/12/20 01:53:19;;;;;;;3.93;1.63;;;13.40;99.90;;;;;;5009430;28;20582;-75
2022/12/20 01:55:46;;;;;;;2.60;1.40;;;13.40;99.90;;;;;;5009402;28;20620;-75
2022/12/20 01:58:14;;;;;;;2.23;1.60;;;13.40;99.90;;;;;;5008367;28;20174;-75
2022/12/20 02:00:40;;;;;;;2.60;1.40;;;13.40;99.90;;;;;;4995961;28;20609;-75
2022/12/20 02:03:10;;;;;;;3.70;2.10;;;13.50;99.90;;;;;;5003783;28;20751;-75
2022/12/20 02:05:39;;;;;;;1.90;1.20;;;13.40;99.90;;;;;;4986048;28;20584;-75
2022/12/20 02:08:07;;;;;;;2.37;1.83;;;13.40;99.90;;;;;;5008578;28;20576;-75
2022/12/20 02:10:54;;;;;;;2.30;1.47;;;13.50;99.90;;;;;;5008088;28;20602;-75
2022/12/20 02:13:57;;;;;;;2.60;1.67;;;13.40;99.90;;;;;;4992370;28;20574;-75
2022/12/20 02:16:28;;;;;;;3.07;1.53;;;13.50;99.90;;;;;;4993584;28;20627;-76
2022/12/20 02:19:32;;;;;;;3.70;1.58;;;13.50;99.90;;;;;;4979098;28;20580;-76
2022/12/20 02:21:58;;;;;;;3.20;1.63;;;13.40;99.90;;;;;;4995424;28;20209;-75
2022/12/20 02:24:30;;;;;;;3.03;1.30;;;13.40;99.90;;;;;;5012274;28;20615;-75
2022/12/20 02:27:08;;;;;;;3.30;1.30;;;13.40;99.90;;;;;;4995416;28;20312;-76
2022/12/20 02:30:00;;;;;;;2.78;1.50;;;13.30;99.90;;;;;;5012246;28;20248;-75
2022/12/20 02:32:43;;;;;;;2.17;0.97;;;13.20;99.90;;;;;;5012067;28;20170;-75
2022/12/20 02:35:13;;;;;;;2.88;1.52;;;13.20;99.90;;;;;;5012104;28;20569;-75
2022/12/20 02:37:53;;;;;;;3.30;1.23;;;13.20;99.90;;;;;;5013948;28;20317;-75
2022/12/20 02:40:25;;;;;;;2.13;1.17;;;13.10;99.90;;;;;;5011909;28;20543;-75
2022/12/20 02:42:55;;;;;;;3.03;1.98;;;13.10;99.90;;;;;;5011088;28;20652;-76
2022/12/20 02:45:27;;;;;;;5.28;2.05;;;13.10;99.90;;;;;;4994791;28;20170;-75
2022/12/20 02:48:01;;;;;;;2.30;1.17;;;13.00;99.90;;;;;;5010805;28;20206;-75
2022/12/20 02:50:39;;;;;;;3.42;2.15;;;13.00;99.90;;;;;;4994249;28;20201;-75
2022/12/20 02:53:06;;;;;;;1.95;1.50;;;12.90;99.90;;;;;;5010356;28;20543;-75
2022/12/20 02:55:49;;;;;;;3.80;1.92;;;12.80;99.90;;;;;;4994244;28;20677;-75
2022/12/20 02:58:32;;;;;;;4.68;1.60;;;12.80;99.90;;;;;;5012008;28;20167;-75
2022/12/20 03:01:05;;;;;;;5.38;1.67;;;12.70;99.90;;;;;;5010675;28;20201;-75
2022/12/20 03:03:33;;;;;;;2.42;1.55;;;12.70;99.90;;;;;;5010720;28;20174;-75
2022/12/20 03:05:59;;;;;;;3.65;1.70;;;12.60;99.90;;;;;;5010228;28;20629;-75
2022/12/20 03:08:25;;;;;;;6.30;1.80;;;12.60;99.90;;;;;;5010818;28;20250;-75
2022/12/20 03:10:52;;;;;;;4.60;2.10;;;12.60;99.90;;;;;;5009906;28;20197;-75
2022/12/20 03:13:19;;;;;;;4.68;2.60;;;12.60;99.90;;;;;;5010340;28;20635;-75
2022/12/20 03:15:51;;;;;;;2.55;1.67;;;12.60;99.90;;;;;;4997979;28;20179;-75
2022/12/20 03:18:17;;;;;;;3.58;1.80;;;12.60;99.90;;;;;;5010616;28;20174;-74
2022/12/20 03:20:43;;;;;;;2.00;1.63;;;12.60;99.90;;;;;;5010094;28;20210;-76
2022/12/20 03:23:09;;;;;;;2.87;2.30;;;12.60;99.90;;;;;;5010305;28;20660;-75
2022/12/20 03:25:34;;;;;;;3.13;2.00;;;12.50;99.90;;;;;;5010495;28;20612;-75
2022/12/20 03:28:02;;;;;;;4.25;2.65;;;12.50;99.90;;;;;;5010165;28;20202;-75
2022/12/20 03:30:27;;;;;;;3.23;1.80;;;12.50;99.90;;;;;;4993396;28;20201;-75
2022/12/20 03:32:53;;;;;;;2.60;2.00;;;12.40;99.90;;;;;;5009457;28;20672;-75
2022/12/20 03:35:19;;;;;;;2.60;1.90;;;12.40;99.90;;;;;;5010388;28;20179;-75
2022/12/20 03:37:45;;;;;;;4.03;2.00;;;12.40;99.90;;;;;;5010850;28;20725;-75
2022/12/20 03:40:11;;;;;;;4.72;1.98;;;12.40;99.90;;;;;;4993437;28;20597;-75
2022/12/20 03:42:37;;;;;;;3.97;1.90;;;12.40;99.90;;;;;;5010210;28;20552;-75
2022/12/20 03:45:04;;;;;;;2.03;1.53;;;12.50;99.90;;;;;;5009458;28;20261;-75
2022/12/20 03:47:30;;;;;;;3.70;1.90;;;12.50;99.90;;;;;;5009871;28;20624;-75
2022/12/20 03:49:56;;;;;;;3.30;1.97;;;12.50;99.90;;;;;;5009539;28;20181;-75
2022/12/20 03:52:22;;;;;;;2.15;1.48;;;12.50;99.90;;;;;;5012282;28;20600;-75
2022/12/20 03:54:48;;;;;;;4.50;1.80;;;12.50;99.90;;;;;;5008886;28;20166;-75
2022/12/20 03:57:17;;;;;;;2.95;1.40;;;12.50;99.90;;;;;;5009647;28;20187;-75
2022/12/20 03:59:45;;;;;;;3.92;1.83;;;12.50;99.90;;;;;;5007948;28;20178;-75
2022/12/20 04:02:14;;;;;;;2.53;1.60;;;12.50;99.90;;;;;;4992746;28;20198;-75
2022/12/20 04:04:40;;;;;;;3.40;1.87;;;12.50;99.90;;;;;;5010918;28;20182;-75
2022/12/20 04:07:06;;;;;;;3.77;1.90;;;12.40;99.90;;;;;;4992954;28;20695;-75
2022/12/20 04:09:34;;;;;;;3.80;1.90;;;12.40;99.90;;;;;;5009081;28;20174;-75
2022/12/20 04:12:06;;;;;;;3.42;1.80;;;12.40;99.90;;;;;;5008878;28;20245;-76
2022/12/20 04:14:35;;;;;;;2.50;1.98;;;12.30;99.90;;;;;;4993238;28;20528;-75
2022/12/20 04:17:00;;;;;;;3.47;1.90;;;12.30;99.90;;;;;;5008845;28;20517;-75
2022/12/20 04:19:27;;;;;;;3.70;2.25;;;12.20;99.90;;;;;;4992908;28;20260;-75
2022/12/20 04:21:55;;;;;;;4.27;2.07;;;12.20;99.90;;;;;;5008717;28;20300;-75
2022/12/20 04:24:21;;;;;;;3.75;1.90;;;12.10;99.90;;;;;;5023821;28;20185;-76
2022/12/20 04:27:19;;;;;;;3.45;1.75;;;12.10;99.90;;;;;;5004171;28;20198;-76
2022/12/20 04:29:45;;;;;;;4.63;1.60;;;12.00;99.90;;;;;;4999817;28;20261;-76
2022/12/20 04:32:14;;;;;;;6.82;2.35;;;12.00;99.90;;;;;;5013796;28;20210;-75
2022/12/20 04:34:39;;;;;;;5.03;2.30;;;11.90;99.90;;;;;;4979691;28;20197;-76
2022/12/20 04:37:05;;;;;;;4.70;1.80;;;11.90;99.90;;;;;;5012600;28;20158;-76
2022/12/20 04:39:42;;;;;;;2.65;1.95;;;11.80;99.90;;;;;;4994039;28;20178;-76
2022/12/20 04:42:18;;;;;;;2.90;1.88;;;11.80;99.90;;;;;;5013149;28;20205;-76
2022/12/20 04:44:44;;;;;;;4.80;2.22;;;11.80;99.90;;;;;;5013590;28;20177;-76
2022/12/20 04:47:12;;;;;;;3.58;2.88;;;11.80;99.90;;;;;;5015360;28;20206;-76
2022/12/20 04:49:38;;;;;;;4.77;2.20;;;11.80;99.90;;;;;;5011958;28;20174;-76
2022/12/20 04:54:49;;;;;;;2.90;1.38;;;11.80;99.90;;;;;;4994403;28;20613;-75
2022/12/20 04:57:21;;;;;;;2.92;1.65;;;11.80;99.90;;;;;;5008882;28;20268;-75
2022/12/20 04:59:47;;;;;;;2.72;1.90;;;11.80;99.90;;;;;;4975836;28;20780;-74
2022/12/20 05:02:13;;;;;;;3.53;1.90;;;11.80;99.90;;;;;;4988240;28;20194;-74
2022/12/20 05:04:47;;;;;;;2.78;2.05;;;11.80;99.90;;;;;;4989009;28;20362;-75
2022/12/20 05:07:13;;;;;;;5.43;2.10;;;11.80;99.90;;;;;;4975023;28;20202;-75
2022/12/20 05:09:45;;;;;;;3.88;2.00;;;11.80;99.90;;;;;;4987431;28;20253;-75
2022/12/20 05:12:10;;;;;;;2.77;2.17;;;11.80;99.90;;;;;;4971529;28;20293;-75
2022/12/20 05:14:36;;;;;;;2.23;1.70;;;11.80;99.90;;;;;;4972209;28;20225;-75
2022/12/20 05:17:02;;;;;;;3.10;1.83;;;11.90;99.90;;;;;;4971769;28;20267;-75
2022/12/20 05:19:28;;;;;;;3.38;1.80;;;11.90;99.90;;;;;;4971544;28;20237;-75
2022/12/20 05:27:30;;;;;;;3.83;1.63;;;12.00;99.90;;;;;;4972991;28;20213;-75
2022/12/20 05:29:56;;;;;;;4.95;2.20;;;12.00;99.90;;;;;;4956578;28;20170;-75
2022/12/20 05:32:23;;;;;;;2.83;1.63;;;12.00;99.90;;;;;;4972875;28;20168;-75
2022/12/20 05:34:50;;;;;;;3.38;2.10;;;12.00;99.90;;;;;;4972951;28;20175;-75
2022/12/20 05:37:17;;;;;;;4.18;2.55;;;12.10;99.90;;;;;;4973778;28;20175;-75
2022/12/20 05:39:44;;;;;;;4.60;1.95;;;12.10;99.90;;;;;;4973238;28;20670;-75
2022/12/20 05:42:16;;;;;;;2.17;1.55;;;12.10;99.90;;;;;;4989420;28;20285;-75
2022/12/20 05:44:43;;;;;;;3.40;1.80;;;12.10;99.90;;;;;;4992415;28;20598;-75
2022/12/20 05:47:09;;;;;;;3.00;1.93;;;12.10;99.90;;;;;;4972617;28;20238;-75
2022/12/20 05:49:36;;;;;;;2.75;2.33;;;12.10;99.90;;;;;;4973780;28;20578;-75
2022/12/20 05:52:04;;;;;;;2.35;1.85;;;12.10;99.90;;;;;;4976532;28;20195;-76
2022/12/20 05:54:30;;;;;;;4.10;2.10;;;12.20;99.90;;;;;;4994944;28;20159;-75
2022/12/20 05:57:09;;;;;;;5.38;2.10;;;12.20;99.90;;;;;;4993903;28;20174;-75
2022/12/20 05:59:38;;;;;;;2.78;1.60;;;12.20;99.90;;;;;;4994639;28;20226;-75
2022/12/20 06:02:07;;;;;;;3.92;2.45;;;12.20;99.90;;;;;;4994730;28;20813;-75
2022/12/20 06:04:34;;;;;;;5.63;2.65;;;12.20;99.90;;;;;;4979680;28;20483;-76
2022/12/20 06:07:04;;;;;;;5.45;2.15;;;12.20;99.90;;;;;;4992961;28;20795;-74
2022/12/20 06:09:31;;;;;;;2.70;1.60;;;12.20;99.90;;;;;;4991783;28;20545;-74
2022/12/20 06:12:03;;;;;;;4.40;1.80;;;12.20;99.90;;;;;;4976290;28;20231;-74
2022/12/20 06:14:31;;;;;;;6.38;2.47;;;12.20;99.90;;;;;;4959461;28;20206;-74
2022/12/20 06:16:57;;;;;;;3.23;2.33;;;12.20;99.90;;;;;;4975471;28;20215;-75
2022/12/20 06:19:23;;;;;;;6.60;2.57;;;12.20;99.90;;;;;;4991630;28;20179;-75
2022/12/20 06:21:52;;;;;;;2.78;1.85;;;12.20;99.90;;;;;;4978434;28;20211;-75
2022/12/20 06:24:26;;;;;;;4.38;2.70;;;12.20;99.90;;;;;;4975104;28;20197;-75
2022/12/20 06:26:52;;;;;;;3.40;2.22;;;12.20;99.90;;;;;;4991430;28;20619;-75
2022/12/20 06:29:19;;;;;;;4.43;2.80;;;12.20;99.90;;;;;;4976585;28;20175;-75
2022/12/20 06:31:53;;;;;;;3.45;1.90;;;12.20;99.90;;;;;;4993216;28;20209;-75
2022/12/20 06:34:19;;;;;;;4.10;2.33;;;12.20;99.90;;;;;;4991895;28;20175;-75
2022/12/20 06:36:45;;;;;;;2.85;2.25;;;12.20;99.90;;;;;;4959400;28;20582;-75
2022/12/20 06:39:16;;;;;;;3.97;2.25;;;12.20;99.90;;;;;;4959822;28;20289;-75
2022/12/20 06:41:58;;;;;;;2.40;1.77;;;12.20;99.90;;;;;;4961200;28;20433;-75
2022/12/20 06:44:24;;;;;;;4.38;2.55;;;12.20;99.90;;;;;;4991755;28;20193;-74
2022/12/20 06:46:50;;;;;;;3.67;2.77;;;12.20;99.90;;;;;;4974930;28;20563;-74
2022/12/20 06:49:16;;;;;;;6.87;2.33;;;12.20;99.90;;;;;;4991445;28;21153;-74
2022/12/20 06:51:42;;;;;;;3.37;2.20;;;12.20;99.90;;;;;;4990668;28;20601;-74
2022/12/20 06:54:08;;;;;;;3.80;2.20;;;12.20;99.90;;;;;;4994931;28;20545;-74
2022/12/20 06:56:34;;;;;;;4.77;2.77;;;12.20;99.90;;;;;;5011010;28;20174;-74
2022/12/20 06:59:05;;;;;;;3.17;2.85;;;12.20;99.90;;;;;;5010835;28;20992;-74
2022/12/20 07:01:30;;;;;;;3.38;2.03;;;12.20;99.90;;;;;;5034337;23;20342;-74
2022/12/20 07:03:59;;;;;;;4.10;2.30;;;12.20;99.90;;;;;;5030588;28;20714;-74
2022/12/20 07:06:32;;;;;;;3.25;2.70;;;12.10;99.90;;;;;;5013027;28;20216;-74
2022/12/20 07:08:57;;;;;;;5.30;2.90;;;12.10;99.90;;;;;;4996790;28;20212;-74
2022/12/20 07:11:23;;;;;;;5.23;3.03;;;12.10;99.90;;;;;;5030457;28;20612;-74
2022/12/20 07:13:54;;;;;;;3.47;2.50;;;12.10;99.90;;;;;;5030822;28;20166;-74
2022/12/20 07:16:20;;;;;;;3.63;2.70;;;12.10;99.90;;;;;;5011541;28;20181;-73
2022/12/20 07:18:52;;;;;;;3.17;2.60;;;12.10;99.90;;;;;;5031070;28;20243;-74
2022/12/20 07:21:19;;;;;;;4.05;2.70;;;12.10;99.90;;;;;;5028757;28;20197;-74
2022/12/20 07:23:46;;;;;;;6.15;3.13;;;12.10;99.90;;;;;;5013036;28;20188;-73
2022/12/20 07:26:12;;;;;;;2.45;1.95;;;12.10;99.90;;;;;;5012712;28;20236;-74
2022/12/20 07:28:38;;;;;;;4.18;2.42;;;12.00;99.90;;;;;;5029616;28;20596;-74
2022/12/20 07:31:05;;;;;;;5.80;2.83;;;12.00;99.90;;;;;;5028456;28;20165;-74
2022/12/20 07:33:31;;;;;;;4.72;2.50;;;12.00;99.90;;;;;;5030798;28;20525;-74
2022/12/20 07:36:09;;;;;;;2.90;2.50;;;12.00;99.90;;;;;;5028957;28;20269;-74
2022/12/20 07:38:35;;;;;;;5.57;2.97;;;12.00;99.90;;;;;;5012506;28;20173;-74
2022/12/20 07:41:13;;;;;;;6.95;2.78;;;11.90;99.90;;;;;;5028218;28;20174;-74
2022/12/20 07:43:39;;;;;;;7.80;2.65;;;11.90;99.90;;;;;;5012542;28;20161;-74
2022/12/20 07:46:06;;;;;;;5.90;3.37;;;11.90;99.90;;;;;;5028456;28;20514;-74
2022/12/20 07:48:32;;;;;;;4.80;2.50;;;11.90;99.90;;;;;;5028959;28;20256;-74
2022/12/20 07:51:05;;;;;;;7.67;2.80;;;11.90;99.90;;;;;;5030249;28;20265;-74
2022/12/20 07:53:35;;;;;;;3.13;2.20;;;11.90;99.90;;;;;;5028917;28;20580;-74
2022/12/20 07:56:02;;;;;;;6.30;3.00;;;11.90;99.90;;;;;;5028588;28;20244;-74
2022/12/20 07:58:29;;;;;;;3.85;2.78;;;11.90;99.90;;;;;;5030127;28;20178;-73
2022/12/20 08:00:56;;;;;;;5.07;2.70;;;11.90;99.90;;;;;;5028957;28;20189;-74
2022/12/20 08:03:27;;;;;;;4.85;3.33;;;11.90;99.90;;;;;;5028357;28;20182;-73
2022/12/20 08:05:56;;;;;;;3.55;2.85;;;12.00;99.90;;;;;;5030252;28;20181;-74
2022/12/20 08:08:23;;;;;;;4.95;2.97;;;11.90;99.90;;;;;;5012401;28;20178;-73
2022/12/20 08:10:49;;;;;;;5.45;2.92;;;12.00;99.90;;;;;;5029513;28;20189;-73
2022/12/20 08:13:15;;;;;;;6.63;2.47;;;12.00;99.90;;;;;;5029346;28;20189;-73
2022/12/20 08:15:41;;;;;;;5.50;2.55;;;12.00;99.90;;;;;;5029928;28;20166;-72
2022/12/20 08:18:07;;;;;;;3.03;1.70;;;12.10;99.90;;;;;;5028994;28;20185;-73
2022/12/20 08:20:33;;;;;;;8.53;2.97;;;12.10;99.90;;;;;;5029817;28;20576;-73
2022/12/20 08:22:58;;;;;;;3.97;2.37;;;12.20;99.90;;;;;;5028691;28;20202;-73
2022/12/20 08:25:24;;;;;;;4.43;2.30;;;12.30;99.90;;;;;;5029912;28;20169;-73
2022/12/20 08:27:50;;;;;;;2.88;1.80;;;12.30;99.90;;;;;;5028425;28;20209;-74
2022/12/20 08:30:16;;;;;;;4.03;2.30;;;12.40;99.90;;;;;;5028480;28;20204;-74
2022/12/20 08:32:42;;;;;;;5.43;2.00;;;12.40;99.90;;;;;;5011694;28;20641;-73
2022/12/20 08:35:07;;;;;;;4.10;2.40;;;12.50;99.90;;;;;;5028725;28;20572;-73
2022/12/20 08:37:33;;;;;;;5.47;2.40;;;12.50;99.90;;;;;;5027544;28;20218;-73
2022/12/20 08:39:59;;;;;;;4.63;2.23;;;12.50;99.90;;;;;;5023663;28;20633;-73
2022/12/20 08:42:26;;;;;;;4.07;2.17;;;12.50;99.90;;;;;;5010952;28;20707;-72
2022/12/20 08:44:52;;;;;;;5.75;2.08;;;12.60;99.90;;;;;;5028087;28;20620;-72
2022/12/20 08:47:18;;;;;;;5.87;2.67;;;12.60;99.90;;;;;;5028096;28;20657;-72
2022/12/20 08:49:43;;;;;;;2.70;2.17;;;12.60;99.90;;;;;;5028432;28;20172;-72
2022/12/20 08:52:09;;;;;;;4.03;2.40;;;12.60;99.90;;;;;;5027553;28;20263;-72
2022/12/20 08:54:35;;;;;;;4.77;2.57;;;12.60;99.90;;;;;;5028951;28;20236;-72
2022/12/20 08:57:01;;;;;;;3.10;2.10;;;12.60;99.90;;;;;;5028250;28;20589;-73
2022/12/20 08:59:27;;;;;;;7.73;2.40;;;12.60;99.90;;;;;;5028019;28;20281;-72
2022/12/20 09:01:53;;;;;;;6.50;2.50;;;12.60;99.90;;;;;;5028362;28;20627;-73
2022/12/20 09:04:20;;;;;;;3.40;2.05;;;12.60;99.90;;;;;;5029097;28;20704;-72
2022/12/20 09:06:46;;;;;;;6.85;2.65;;;12.70;99.90;;;;;;5028387;28;20201;-72
2022/12/20 09:09:12;;;;;;;4.82;1.88;;;12.70;99.90;;;;;;5004326;28;20318;-72
2022/12/20 09:11:38;;;;;;;4.07;2.63;;;12.70;99.90;;;;;;5027125;28;20268;-72
2022/12/20 09:14:04;;;;;;;3.72;2.67;;;12.80;99.90;;;;;;5029296;28;20595;-72
2022/12/20 09:16:31;;;;;;;4.63;2.70;;;12.70;99.90;;;;;;5029104;28;20178;-72
2022/12/20 09:18:59;;;;;;;4.35;2.42;;;12.80;99.90;;;;;;5027987;28;20592;-72
2022/12/20 09:21:24;;;;;;;5.05;2.03;;;12.80;99.90;;;;;;5027284;28;20240;-72
2022/12/20 09:23:52;;;;;;;7.97;2.75;;;12.80;99.90;;;;;;5027936;28;20173;-72
2022/12/20 09:26:19;;;;;;;2.73;2.33;;;12.80;99.90;;;;;;5031737;28;20894;-72
2022/12/20 09:28:46;;;;;;;3.72;2.58;;;12.70;99.90;;;;;;5031597;28;20591;-72
2022/12/20 09:31:18;;;;;;;2.72;2.13;;;12.70;99.90;;;;;;5031007;28;20196;-72
2022/12/20 09:33:44;;;;;;;3.58;2.50;;;12.70;99.90;;;;;;5014930;28;20166;-73
2022/12/20 09:36:19;;;;;;;4.15;2.40;;;12.70;99.90;;;;;;5033140;28;20253;-72
2022/12/20 09:38:45;;;;;;;3.78;2.50;;;12.70;99.90;;;;;;5032777;28;20482;-72
2022/12/20 09:41:41;;;;;;;7.53;2.97;;;12.70;99.90;;;;;;5031829;28;20165;-72
2022/12/20 09:44:30;;;;;;;3.55;2.40;;;12.70;99.90;;;;;;5014151;28;20188;-72
2022/12/20 09:47:04;;;;;;;3.60;2.47;;;12.70;99.90;;;;;;5032934;28;20752;-72
2022/12/20 09:49:35;;;;;;;3.88;2.40;;;12.70;99.90;;;;;;5031567;28;20268;-72
2022/12/20 09:52:22;;;;;;;5.72;2.47;;;12.70;99.90;;;;;;5031861;28;20582;-72
2022/12/20 09:54:54;;;;;;;3.47;2.28;;;12.80;99.90;;;;;;5031557;28;20173;-73
2022/12/20 09:57:46;;;;;;;4.75;2.58;;;12.80;99.90;;;;;;5011315;28;20178;-73
2022/12/20 10:00:16;;;;;;;3.20;1.83;;;12.80;99.90;;;;;;5025596;28;20232;-73
2022/12/20 10:02:47;;;;;;;4.22;1.70;;;12.90;99.90;;;;;;5031309;28;20987;-73
2022/12/20 10:05:37;;;;;;;5.20;2.40;;;12.90;99.90;;;;;;5032561;28;20193;-72
2022/12/20 10:08:14;;;;;;;7.80;2.47;;;12.90;99.90;;;;;;5032834;28;20666;-73
2022/12/20 10:10:53;;;;;;;2.73;2.30;;;13.00;99.90;;;;;;5032489;28;20193;-73
2022/12/20 10:13:27;;;;;;;8.20;2.60;;;12.90;99.90;;;;;;5015055;28;20612;-73
2022/12/20 10:16:20;;;;;;;3.00;1.70;;;12.90;99.90;;;;;;5032287;28;20573;-73
2022/12/20 10:19:03;;;;;;;4.38;2.40;;;12.90;99.90;;;;;;5032797;28;20564;-72
2022/12/20 10:21:40;;;;;;;5.93;2.97;;;12.90;99.90;;;;;;5014386;28;20196;-72
2022/12/20 10:24:18;;;;;;;4.78;2.00;;;12.90;99.90;;;;;;5032381;28;20180;-73
2022/12/20 10:26:49;;;;;;;3.25;2.10;;;12.90;99.90;;;;;;5032363;28;20197;-72
2022/12/20 10:29:14;;;;;;;4.68;2.88;;;12.90;99.90;;;;;;5031111;28;20333;-73
2022/12/20 10:31:40;;;;;;;4.00;2.00;;;13.00;99.90;;;;;;5032387;28;20628;-73
2022/12/20 10:34:06;;;;;;;5.10;2.15;;;13.00;99.90;;;;;;5030769;28;20170;-73
2022/12/20 10:36:36;;;;;;;6.50;2.60;;;13.00;99.90;;;;;;5031502;28;20166;-73
2022/12/20 10:39:05;;;;;;;3.63;2.40;;;13.00;99.90;;;;;;5013514;28;20590;-73
2022/12/20 10:41:43;;;;;;;3.97;1.70;;;13.00;99.90;;;;;;5031536;28;20956;-73
2022/12/20 10:44:27;;;;;;;3.92;1.83;;;13.10;99.90;;;;;;5030524;28;20642;-73
2022/12/20 10:47:00;;;;;;;3.10;2.13;;;13.10;99.90;;;;;;5046778;28;20211;-73
2022/12/20 10:49:39;;;;;;;4.67;2.07;;;13.10;99.90;;;;;;5048929;28;20995;-73
2022/12/20 10:52:08;;;;;;;5.77;2.90;;;13.10;99.90;;;;;;5030590;28;20635;-73
2022/12/20 10:54:36;;;;;;;5.83;3.27;;;13.20;99.90;;;;;;5025627;28;20582;-72
2022/12/20 10:57:21;;;;;;;5.60;3.05;;;13.20;99.90;;;;;;5032524;28;20584;-72
2022/12/20 11:00:04;;;;;;;5.17;2.90;;;13.20;99.90;;;;;;5031723;28;20172;-73
2022/12/20 11:02:36;;;;;;;5.37;1.97;;;13.20;99.90;;;;;;5030353;28;20615;-72
2022/12/20 11:05:08;;;;;;;3.30;2.50;;;13.30;99.90;;;;;;5032279;28;20966;-72
2022/12/20 11:07:34;;;;;;;3.77;2.30;;;13.30;99.90;;;;;;5030201;28;20647;-72
2022/12/20 11:10:15;;;;;;;3.63;1.67;;;13.30;99.90;;;;;;5031800;28;20591;-72
2022/12/20 11:12:56;;;;;;;2.90;1.90;;;13.30;99.90;;;;;;5033162;28;20658;-72
2022/12/20 11:15:28;;;;;;;8.80;2.03;;;13.30;99.90;;;;;;5032682;28;20572;-72
2022/12/20 11:18:04;;;;;;;7.00;4.73;;;13.30;99.90;;;;;;5030733;28;20627;-72
2022/12/20 11:20:48;;;;;;;5.67;3.77;;;13.40;99.90;;;;;;5032147;28;21230;-73
2022/12/20 11:23:32;;;;;;;4.60;2.50;;;13.40;99.90;;;;;;5031062;28;20642;-71
2022/12/20 11:26:04;;;;;;;7.50;2.40;;;13.40;99.90;;;;;;5029892;28;20580;-72
2022/12/20 11:28:54;;;;;;;5.93;1.90;;;13.50;99.90;;;;;;5017348;28;20624;-71
2022/12/20 11:31:40;;;;;;;3.10;1.93;;;13.50;99.90;;;;;;5029415;28;20628;-72
2022/12/20 11:34:28;;;;;;;4.43;2.17;;;13.60;99.90;;;;;;5031091;28;20628;-71
2022/12/20 11:37:02;;;;;;;4.97;2.37;;;13.60;99.90;;;;;;5029516;28;20592;-73
2022/12/20 11:40:04;;;;;;;4.97;2.50;;;13.70;99.90;;;;;;5030442;28;20587;-72
2022/12/20 11:42:29;;;;;;;3.17;2.00;;;13.70;99.90;;;;;;5029585;28;20603;-72
2022/12/20 11:45:02;;;;;;;3.60;3.10;;;13.80;99.90;;;;;;5030096;28;20584;-72
2022/12/20 11:47:59;;;;;;;5.07;2.43;;;13.80;99.90;;;;;;5030403;28;20217;-72
2022/12/20 11:50:43;;;;;;;5.30;2.20;;;13.80;99.90;;;;;;5008587;28;20589;-72
2022/12/20 11:53:36;;;;;;;5.50;2.57;;;13.90;99.90;;;;;;5009807;28;20692;-72
2022/12/20 11:56:14;;;;;;;5.67;3.40;;;13.80;99.90;;;;;;5025294;28;20588;-74
2022/12/20 11:58:55;;;;;;;5.27;2.73;;;13.90;99.90;;;;;;5029121;28;20595;-73
2022/12/20 12:01:28;;;;;;;3.03;2.60;;;13.90;99.90;;;;;;5027305;28;20981;-73
2022/12/20 12:04:18;;;;;;;7.53;3.00;;;13.90;99.90;;;;;;5038031;28;20647;-73
2022/12/20 12:07:07;;;;;;;5.10;2.83;;;13.90;99.90;;;;;;5020778;28;20731;-73
2022/12/20 12:09:37;;;;;;;5.13;2.97;;;14.00;99.90;;;;;;5025821;28;20654;-73
2022/12/20 12:12:10;;;;;;;6.00;2.63;;;14.00;99.90;;;;;;5031120;28;20616;-74
2022/12/20 12:14:44;;;;;;;5.50;2.50;;;14.00;99.90;;;;;;5028832;28;20588;-73
2022/12/20 12:17:38;;;;;;;5.00;2.80;;;14.00;99.90;;;;;;5029425;28;20580;-73
2022/12/20 12:20:33;;;;;;;7.53;2.13;;;14.00;99.90;;;;;;5026828;28;20937;-73
2022/12/20 12:23:25;;;;;;;2.47;1.97;;;14.10;99.90;;;;;;5023431;28;20663;-73
2022/12/20 12:25:51;;;;;;;4.80;2.67;;;14.10;99.90;;;;;;5029382;28;20557;-73
2022/12/20 12:28:18;;;;;;;3.67;2.20;;;14.10;99.90;;;;;;5027973;28;21266;-72
2022/12/20 12:30:53;;;;;;;2.77;1.87;;;14.10;99.90;;;;;;5011178;28;20577;-73
2022/12/20 12:33:25;;;;;;;5.63;2.70;;;14.10;99.90;;;;;;5027778;28;20619;-73
2022/12/20 12:35:51;;;;;;;4.90;2.50;;;14.10;99.90;;;;;;5011173;28;21245;-73
2022/12/20 12:38:54;;;;;;;4.33;2.77;;;14.00;99.90;;;;;;5028251;28;20564;-73
2022/12/20 12:41:32;;;;;;;3.57;1.97;;;14.00;99.90;;;;;;5026340;28;20212;-73
2022/12/20 12:44:17;;;;;;;3.23;1.90;;;13.90;99.90;;;;;;5012184;28;20576;-73
2022/12/20 12:46:44;;;;;;;2.60;2.10;;;13.80;99.90;;;;;;5026592;28;20639;-73
2022/12/20 12:49:16;;;;;;;5.20;3.20;;;13.80;99.90;;;;;;5029539;28;20576;-73
2022/12/20 12:51:49;;;;;;;5.77;3.40;;;13.80;99.90;;;;;;5028599;28;20599;-73
2022/12/20 12:54:39;;;;;;;8.33;4.40;;;13.70;99.90;;;;;;5029520;28;20680;-73
2022/12/20 12:57:16;;;;;;;5.50;4.13;;;13.70;99.90;;;;;;4987977;28;20688;-73
2022/12/20 12:59:47;;;;;;;5.60;3.83;;;13.70;99.90;;;;;;5027474;28;20592;-73
2022/12/20 13:02:13;;;;;;;9.30;4.47;;;13.70;99.90;;;;;;5028595;28;20717;-73
2022/12/20 13:04:58;;;;;;;5.77;5.00;;;13.70;99.90;;;;;;5029523;28;20624;-73
2022/12/20 13:07:44;;;;;;;6.82;3.28;;;13.70;99.90;;;;;;5027736;28;20742;-73
2022/12/20 13:10:16;;;;;;;6.40;4.60;;;13.70;99.90;;;;;;5028710;28;20265;-73
2022/12/20 13:12:51;;;;;;;6.87;4.60;;;13.70;99.90;;;;;;5027920;28;20600;-73
2022/12/20 13:15:20;;;;;;;7.90;5.70;;;13.70;99.90;;;;;;5027751;28;20572;-73
2022/12/20 13:17:59;;;;;;;6.43;5.50;;;13.70;99.90;;;;;;5028154;28;20580;-73